createdAt,value
2022-10-11T00:00:01.403Z,1020.44
2022-10-11T00:01:01.846Z,1020.44
2022-10-11T00:02:02.102Z,1020.49
2022-10-11T00:03:02.432Z,1020.51
2022-10-11T00:04:02.790Z,1020.49
2022-10-11T00:05:03.127Z,1020.55
2022-10-11T00:06:03.982Z,1020.53
2022-10-11T00:07:03.816Z,1020.54
2022-10-11T00:08:04.142Z,1020.59
2022-10-11T00:09:04.531Z,1020.63
2022-10-11T00:10:04.815Z,1020.59
2022-10-11T00:11:05.179Z,1020.65
2022-10-11T00:12:05.502Z,1020.65
2022-10-11T00:13:05.836Z,1020.67
2022-10-11T00:14:06.179Z,1020.70
2022-10-11T00:15:06.519Z,1020.68
2022-10-11T00:16:07.196Z,1020.72
2022-10-11T00:17:07.205Z,1020.74
2022-10-11T00:18:07.560Z,1020.73
2022-10-11T00:19:07.906Z,1020.71
2022-10-11T00:20:08.254Z,1020.73
2022-10-11T00:21:08.613Z,1020.70
2022-10-11T00:22:08.946Z,1020.80
2022-10-11T00:23:09.323Z,1020.76
2022-10-11T00:24:09.680Z,1020.78
2022-10-11T00:25:10.042Z,1020.83
2022-10-11T00:26:10.347Z,1020.84
2022-10-11T00:27:10.690Z,1020.84
2022-10-11T00:28:11.056Z,1020.81
2022-10-11T00:29:11.393Z,1020.84
2022-10-11T00:30:11.711Z,1020.86
2022-10-11T00:31:12.051Z,1020.90
2022-10-11T00:32:12.385Z,1020.89
2022-10-11T00:33:12.758Z,1020.87
2022-10-11T00:34:13.123Z,1020.94
2022-10-11T00:35:13.455Z,1020.96
2022-10-11T00:36:13.818Z,1020.93
2022-10-11T00:37:14.151Z,1021.00
2022-10-11T00:38:14.502Z,1020.97
2022-10-11T00:39:14.875Z,1020.97
2022-10-11T00:40:15.183Z,1021.02
2022-10-11T00:41:15.563Z,1020.96
2022-10-11T00:42:15.905Z,1021.00
2022-10-11T00:43:16.241Z,1021.02
2022-10-11T00:44:16.638Z,1020.98
2022-10-11T00:45:16.967Z,1020.96
2022-10-11T00:46:17.302Z,1020.97
2022-10-11T00:47:17.681Z,1021.01
2022-10-11T00:48:18.008Z,1020.97
2022-10-11T00:49:18.372Z,1020.99
2022-10-11T00:50:18.710Z,1020.97
2022-10-11T00:51:19.110Z,1020.92
2022-10-11T00:52:19.408Z,1021.03
2022-10-11T00:53:19.740Z,1021.01
2022-10-11T00:54:20.103Z,1020.99
2022-10-11T00:55:20.436Z,1021.00
2022-10-11T00:56:20.773Z,1021.02
2022-10-11T00:57:21.141Z,1021.08
2022-10-11T00:58:21.473Z,1021.06
2022-10-11T00:59:21.826Z,1021.06
2022-10-11T01:00:22.157Z,1021.08
2022-10-11T01:01:22.560Z,1021.08
2022-10-11T01:02:22.853Z,1021.08
2022-10-11T01:03:23.185Z,1021.08
2022-10-11T01:04:23.578Z,1021.13
2022-10-11T01:05:29.617Z,1021.17
2022-10-11T01:06:24.257Z,1021.14
2022-10-11T01:07:24.601Z,1021.17
2022-10-11T01:08:24.955Z,1021.16
2022-10-11T01:09:25.371Z,1021.18
2022-10-11T01:10:25.623Z,1021.17
2022-10-11T01:11:25.976Z,1021.14
2022-10-11T01:12:26.310Z,1021.19
2022-10-11T01:13:26.643Z,1021.19
2022-10-11T01:14:27.004Z,1021.22
2022-10-11T01:15:27.341Z,1021.30
2022-10-11T01:16:27.694Z,1021.32
2022-10-11T01:17:28.010Z,1021.28
2022-10-11T01:18:28.386Z,1021.29
2022-10-11T01:19:28.737Z,1021.26
2022-10-11T01:20:29.070Z,1021.19
2022-10-11T01:21:29.409Z,1021.17
2022-10-11T01:22:29.771Z,1021.10
2022-10-11T01:23:30.093Z,1021.12
2022-10-11T01:24:30.455Z,1021.10
2022-10-11T01:25:30.791Z,1021.08
2022-10-11T01:26:31.132Z,1021.10
2022-10-11T01:27:31.467Z,1021.05
2022-10-11T01:28:31.852Z,1021.05
2022-10-11T01:29:32.163Z,1021.04
2022-10-11T01:30:32.494Z,1021.08
2022-10-11T01:31:32.825Z,1021.08
2022-10-11T01:32:33.185Z,1021.12
2022-10-11T01:33:33.515Z,1021.18
2022-10-11T01:34:33.897Z,1021.13
2022-10-11T01:35:34.204Z,1021.08
2022-10-11T01:36:34.541Z,1021.10
2022-10-11T01:37:34.880Z,1021.10
2022-10-11T01:38:35.215Z,1021.12
2022-10-11T01:39:35.574Z,1021.13
2022-10-11T01:40:35.913Z,1021.15
2022-10-11T01:41:36.243Z,1021.20
2022-10-11T01:42:36.588Z,1021.27
2022-10-11T01:43:36.956Z,1021.29
2022-10-11T01:44:37.335Z,1021.28
2022-10-11T01:45:37.686Z,1021.23
2022-10-11T01:46:38.014Z,1021.32
2022-10-11T01:47:38.351Z,1021.33
2022-10-11T01:48:38.728Z,1021.33
2022-10-11T01:49:39.076Z,1021.33
2022-10-11T01:50:39.442Z,1021.35
2022-10-11T01:51:42.057Z,1021.35
2022-10-11T01:52:40.123Z,1021.32
2022-10-11T01:53:40.483Z,1021.35
2022-10-11T01:55:04.397Z,1021.35
2022-10-11T01:55:41.177Z,1021.37
2022-10-11T01:56:41.549Z,1021.43
2022-10-11T01:57:41.886Z,1021.38
2022-10-11T01:58:42.224Z,1021.43
2022-10-11T01:59:42.599Z,1021.42
2022-10-11T02:00:42.931Z,1021.43
2022-10-11T02:01:43.397Z,1021.45
2022-10-11T02:02:43.634Z,1021.47
2022-10-11T02:03:43.989Z,1021.44
2022-10-11T02:04:44.340Z,1021.48
2022-10-11T02:05:44.660Z,1021.48
2022-10-11T02:06:45.041Z,1021.47
2022-10-11T02:07:45.402Z,1021.50
2022-10-11T02:08:45.794Z,1021.52
2022-10-11T02:09:46.174Z,1021.53
2022-10-11T02:10:46.463Z,1021.51
2022-10-11T02:11:46.796Z,1021.49
2022-10-11T02:12:47.138Z,1021.48
2022-10-11T02:13:47.483Z,1021.53
2022-10-11T02:14:47.888Z,1021.54
2022-10-11T02:15:48.235Z,1021.55
2022-10-11T02:16:48.588Z,1021.58
2022-10-11T02:17:48.920Z,1021.59
2022-10-11T02:18:49.253Z,1021.59
2022-10-11T02:19:49.604Z,1021.64
2022-10-11T02:20:49.940Z,1021.60
2022-10-11T02:21:50.294Z,1021.62
2022-10-11T02:22:50.632Z,1021.58
2022-10-11T02:23:50.963Z,1021.63
2022-10-11T02:24:51.360Z,1021.58
2022-10-11T02:25:51.687Z,1021.62
2022-10-11T02:26:52.029Z,1021.57
2022-10-11T02:27:52.394Z,1021.57
2022-10-11T02:28:52.817Z,1021.55
2022-10-11T02:29:53.104Z,1021.58
2022-10-11T02:30:53.439Z,1021.62
2022-10-11T02:31:53.773Z,1021.58
2022-10-11T02:32:54.142Z,1021.61
2022-10-11T02:33:54.486Z,1021.60
2022-10-11T02:34:54.855Z,1021.62
2022-10-11T02:35:55.175Z,1021.60
2022-10-11T02:36:55.502Z,1021.56
2022-10-11T02:37:55.836Z,1021.66
2022-10-11T02:38:56.222Z,1021.62
2022-10-11T02:39:56.582Z,1021.65
2022-10-11T02:40:56.928Z,1021.62
2022-10-11T02:41:57.263Z,1021.61
2022-10-11T02:42:57.643Z,1021.63
2022-10-11T02:43:57.977Z,1021.65
2022-10-11T02:44:58.367Z,1021.66
2022-10-11T02:45:58.700Z,1021.70
2022-10-11T02:46:59.081Z,1021.66
2022-10-11T02:47:59.369Z,1021.66
2022-10-11T02:48:59.712Z,1021.66
2022-10-11T02:50:00.126Z,1021.69
2022-10-11T02:51:00.426Z,1021.64
2022-10-11T02:52:00.752Z,1021.76
2022-10-11T02:53:01.139Z,1021.72
2022-10-11T02:54:01.470Z,1021.71
2022-10-11T02:55:01.828Z,1021.76
2022-10-11T02:56:02.465Z,1021.71
2022-10-11T02:57:02.528Z,1021.74
2022-10-11T02:58:02.876Z,1021.76
2022-10-11T02:59:03.251Z,1021.74
2022-10-11T03:00:03.584Z,1021.80
2022-10-11T03:01:03.919Z,1021.78
2022-10-11T03:02:04.302Z,1021.78
2022-10-11T03:03:04.609Z,1021.78
2022-10-11T03:04:04.943Z,1021.82
2022-10-11T03:05:05.326Z,1021.84
2022-10-11T03:06:06.100Z,1021.84
2022-10-11T03:07:06.010Z,1021.84
2022-10-11T03:08:06.342Z,1021.87
2022-10-11T03:09:06.686Z,1021.90
2022-10-11T03:10:07.064Z,1021.85
2022-10-11T03:11:07.389Z,1021.87
2022-10-11T03:12:07.727Z,1021.93
2022-10-11T03:13:08.069Z,1021.94
2022-10-11T03:14:08.434Z,1022.00
2022-10-11T03:15:08.828Z,1021.98
2022-10-11T03:16:09.550Z,1021.98
2022-10-11T03:17:34.413Z,1022.01
2022-10-11T03:18:09.875Z,1022.05
2022-10-11T03:19:10.271Z,1022.03
2022-10-11T03:20:10.542Z,1022.05
2022-10-11T03:21:10.893Z,1022.04
2022-10-11T03:22:11.244Z,1022.03
2022-10-11T03:23:11.572Z,1022.05
2022-10-11T03:24:11.953Z,1022.04
2022-10-11T03:25:12.301Z,1022.03
2022-10-11T03:26:12.643Z,1022.08
2022-10-11T03:27:12.977Z,1022.11
2022-10-11T03:28:13.349Z,1022.12
2022-10-11T03:29:13.679Z,1022.12
2022-10-11T03:30:17.384Z,1022.16
2022-10-11T03:31:14.380Z,1022.18
2022-10-11T03:32:14.707Z,1022.24
2022-10-11T03:33:15.100Z,1022.26
2022-10-11T03:34:15.425Z,1022.24
2022-10-11T03:35:15.792Z,1022.28
2022-10-11T03:36:16.115Z,1022.35
2022-10-11T03:37:16.478Z,1022.33
2022-10-11T03:38:16.823Z,1022.32
2022-10-11T03:39:17.193Z,1022.38
2022-10-11T03:40:17.534Z,1022.40
2022-10-11T03:41:17.884Z,1022.42
2022-10-11T03:42:18.217Z,1022.39
2022-10-11T03:43:18.593Z,1022.44
2022-10-11T03:44:18.944Z,1022.38
2022-10-11T03:45:19.283Z,1022.45
2022-10-11T03:46:19.615Z,1022.38
2022-10-11T03:47:19.963Z,1022.42
2022-10-11T03:48:20.293Z,1022.46
2022-10-11T03:49:20.647Z,1022.42
2022-10-11T03:50:20.988Z,1022.47
2022-10-11T03:51:21.327Z,1022.42
2022-10-11T03:52:21.694Z,1022.45
2022-10-11T03:53:22.034Z,1022.47
2022-10-11T03:54:22.364Z,1022.51
2022-10-11T03:55:22.723Z,1022.47
2022-10-11T03:56:23.050Z,1022.52
2022-10-11T03:57:23.434Z,1022.49
2022-10-11T03:58:23.761Z,1022.47
2022-10-11T03:59:24.145Z,1022.50
2022-10-11T04:00:24.496Z,1022.48
2022-10-11T04:01:24.896Z,1022.49
2022-10-11T04:02:25.178Z,1022.49
2022-10-11T04:03:25.509Z,1022.50
2022-10-11T04:04:25.845Z,1022.50
2022-10-11T04:05:26.198Z,1022.49
2022-10-11T04:06:26.526Z,1022.47
2022-10-11T04:07:26.885Z,1022.45
2022-10-11T04:08:27.214Z,1022.46
2022-10-11T04:09:27.552Z,1022.44
2022-10-11T04:10:27.942Z,1022.40
2022-10-11T04:11:28.243Z,1022.46
2022-10-11T04:12:28.579Z,1022.47
2022-10-11T04:13:28.923Z,1022.52
2022-10-11T04:14:29.258Z,1022.50
2022-10-11T04:15:29.658Z,1022.57
2022-10-11T04:16:29.995Z,1022.56
2022-10-11T04:17:30.326Z,1022.65
2022-10-11T04:18:30.686Z,1022.70
2022-10-11T04:19:31.038Z,1022.68
2022-10-11T04:20:31.391Z,1022.74
2022-10-11T04:21:31.722Z,1022.73
2022-10-11T04:22:32.058Z,1022.75
2022-10-11T04:23:32.420Z,1022.76
2022-10-11T04:24:32.747Z,1022.74
2022-10-11T04:25:33.154Z,1022.72
2022-10-11T04:26:33.472Z,1022.76
2022-10-11T04:27:33.841Z,1022.76
2022-10-11T04:28:34.204Z,1022.79
2022-10-11T04:29:34.517Z,1022.78
2022-10-11T04:30:34.904Z,1022.82
2022-10-11T04:31:35.242Z,1022.86
2022-10-11T04:32:35.570Z,1022.80
2022-10-11T04:33:35.909Z,1022.83
2022-10-11T04:34:36.303Z,1022.81
2022-10-11T04:35:36.592Z,1022.84
2022-10-11T04:36:36.919Z,1022.87
2022-10-11T04:37:37.292Z,1022.84
2022-10-11T04:38:37.644Z,1022.90
2022-10-11T04:39:37.973Z,1022.91
2022-10-11T04:40:38.336Z,1022.90
2022-10-11T04:41:38.672Z,1023.03
2022-10-11T04:42:39.025Z,1022.98
2022-10-11T04:43:39.374Z,1022.97
2022-10-11T04:44:39.711Z,1022.99
2022-10-11T04:45:40.061Z,1022.94
2022-10-11T04:46:40.394Z,1022.92
2022-10-11T04:47:40.785Z,1022.98
2022-10-11T04:48:41.081Z,1022.94
2022-10-11T04:49:41.417Z,1022.97
2022-10-11T04:50:41.778Z,1023.02
2022-10-11T04:51:42.105Z,1023.00
2022-10-11T04:52:42.432Z,1022.98
2022-10-11T04:53:42.828Z,1023.01
2022-10-11T04:54:43.139Z,1022.98
2022-10-11T04:55:43.532Z,1023.01
2022-10-11T04:56:43.851Z,1023.00
2022-10-11T04:57:44.216Z,1022.97
2022-10-11T04:58:44.601Z,1023.00
2022-10-11T04:59:49.873Z,1023.01
2022-10-11T05:00:45.317Z,1023.07
2022-10-11T05:01:45.771Z,1023.06
2022-10-11T05:02:46.035Z,1023.07
2022-10-11T05:03:46.417Z,1023.09
2022-10-11T05:04:46.748Z,1023.15
2022-10-11T05:05:47.117Z,1023.09
2022-10-11T05:06:47.216Z,1023.14
2022-10-11T05:07:47.489Z,1023.16
2022-10-11T05:08:47.766Z,1023.18
2022-10-11T05:09:48.052Z,1023.19
2022-10-11T05:10:48.391Z,1023.21
2022-10-11T05:11:48.641Z,1023.18
2022-10-11T05:12:48.917Z,1023.23
2022-10-11T05:13:49.191Z,1023.25
2022-10-11T05:14:49.470Z,1023.22
2022-10-11T05:15:49.649Z,1023.27
2022-10-11T05:16:50.002Z,1023.30
2022-10-11T05:17:50.203Z,1023.22
2022-10-11T05:18:50.486Z,1023.19
2022-10-11T05:19:50.783Z,1023.21
2022-10-11T05:20:51.090Z,1023.24
2022-10-11T05:21:51.266Z,1023.29
2022-10-11T05:22:51.415Z,1023.24
2022-10-11T05:23:51.585Z,1023.25
2022-10-11T05:24:51.746Z,1023.21
2022-10-11T05:25:51.926Z,1023.24
2022-10-11T05:26:52.088Z,1023.23
2022-10-11T05:27:52.247Z,1023.27
2022-10-11T05:28:52.683Z,1023.23
2022-10-11T05:29:52.727Z,1023.28
2022-10-11T05:30:53.050Z,1023.29
2022-10-11T05:31:53.328Z,1023.28
2022-10-11T05:32:53.515Z,1023.35
2022-10-11T05:33:53.670Z,1023.41
2022-10-11T05:34:53.832Z,1023.37
2022-10-11T05:35:54.064Z,1023.37
2022-10-11T05:36:54.179Z,1023.42
2022-10-11T05:37:54.355Z,1023.43
2022-10-11T05:38:54.534Z,1023.40
2022-10-11T05:39:54.836Z,1023.44
2022-10-11T05:40:55.148Z,1023.46
2022-10-11T05:41:55.429Z,1023.46
2022-10-11T05:42:55.728Z,1023.47
2022-10-11T05:43:55.910Z,1023.51
2022-10-11T05:44:56.083Z,1023.50
2022-10-11T05:45:56.405Z,1023.57
2022-10-11T05:46:56.669Z,1023.54
2022-10-11T05:47:56.965Z,1023.58
2022-10-11T05:48:57.262Z,1023.57
2022-10-11T05:49:57.555Z,1023.58
2022-10-11T05:50:57.757Z,1023.59
2022-10-11T05:51:58.037Z,1023.58
2022-10-11T05:52:58.219Z,1023.60
2022-10-11T05:53:58.396Z,1023.66
2022-10-11T05:54:58.693Z,1023.64
2022-10-11T05:55:59.039Z,1023.68
2022-10-11T05:56:59.269Z,1023.70
2022-10-11T05:57:59.553Z,1023.71
2022-10-11T05:59:02.369Z,1023.74
2022-10-11T06:00:00.161Z,1023.74
2022-10-11T06:01:00.428Z,1023.75
2022-10-11T06:02:00.617Z,1023.74
2022-10-11T06:03:00.923Z,1023.75
2022-10-11T06:04:01.214Z,1023.75
2022-10-11T06:05:01.512Z,1023.77
2022-10-11T06:06:01.819Z,1023.79
2022-10-11T06:07:02.103Z,1023.81
2022-10-11T06:08:02.400Z,1023.87
2022-10-11T06:09:02.701Z,1023.92
2022-10-11T06:10:03.003Z,1023.95
2022-10-11T06:11:03.327Z,1023.98
2022-10-11T06:12:03.456Z,1023.93
2022-10-11T06:13:03.817Z,1023.96
2022-10-11T06:14:03.901Z,1023.93
2022-10-11T06:15:04.088Z,1023.99
2022-10-11T06:16:04.552Z,1023.94
2022-10-11T06:17:04.452Z,1023.98
2022-10-11T06:18:04.751Z,1023.89
2022-10-11T06:19:05.047Z,1023.93
2022-10-11T06:20:05.223Z,1023.92
2022-10-11T06:21:05.431Z,1023.93
2022-10-11T06:22:05.562Z,1023.95
2022-10-11T06:23:05.735Z,1024.01
2022-10-11T06:24:05.925Z,1023.96
2022-10-11T06:25:06.095Z,1023.96
2022-10-11T06:26:06.735Z,1023.92
2022-10-11T06:27:06.445Z,1023.92
2022-10-11T06:28:06.665Z,1023.94
2022-10-11T06:29:06.790Z,1023.96
2022-10-11T06:30:06.962Z,1023.95
2022-10-11T06:31:07.151Z,1023.95
2022-10-11T06:32:07.325Z,1024.00
2022-10-11T06:33:07.540Z,1024.02
2022-10-11T06:34:07.673Z,1024.01
2022-10-11T06:35:07.849Z,1024.03
2022-10-11T06:36:08.331Z,1024.05
2022-10-11T06:37:08.210Z,1024.08
2022-10-11T06:38:08.386Z,1024.09
2022-10-11T06:39:08.578Z,1024.08
2022-10-11T06:40:08.747Z,1024.10
2022-10-11T06:41:08.941Z,1024.10
2022-10-11T06:42:09.113Z,1024.17
2022-10-11T06:43:09.303Z,1024.20
2022-10-11T06:44:13.913Z,1024.10
2022-10-11T06:45:09.643Z,1024.13
2022-10-11T06:46:09.823Z,1024.18
2022-10-11T06:47:09.984Z,1024.14
2022-10-11T06:48:10.212Z,1024.15
2022-10-11T06:49:10.334Z,1024.21
2022-10-11T06:50:10.505Z,1024.23
2022-10-11T06:51:10.690Z,1024.26
2022-10-11T06:52:10.863Z,1024.28
2022-10-11T06:53:11.051Z,1024.29
2022-10-11T06:54:11.216Z,1024.31
2022-10-11T06:55:11.388Z,1024.26
2022-10-11T06:56:11.582Z,1024.24
2022-10-11T06:57:11.749Z,1024.30
2022-10-11T06:58:11.927Z,1024.39
2022-10-11T06:59:12.103Z,1024.31
2022-10-11T07:00:12.885Z,1024.36
2022-10-11T07:01:12.581Z,1024.36
2022-10-11T07:02:12.630Z,1024.40
2022-10-11T07:03:12.804Z,1024.40
2022-10-11T07:04:12.970Z,1024.38
2022-10-11T07:05:13.142Z,1024.42
2022-10-11T07:06:13.337Z,1024.46
2022-10-11T07:07:13.507Z,1024.47
2022-10-11T07:08:13.679Z,1024.47
2022-10-11T07:09:13.848Z,1024.48
2022-10-11T07:10:14.055Z,1024.51
2022-10-11T07:11:14.242Z,1024.48
2022-10-11T07:12:14.359Z,1024.47
2022-10-11T07:13:17.230Z,1024.51
2022-10-11T07:14:14.720Z,1024.48
2022-10-11T07:15:14.923Z,1024.50
2022-10-11T07:16:15.113Z,1024.45
2022-10-11T07:17:15.284Z,1024.45
2022-10-11T07:18:15.463Z,1024.46
2022-10-11T07:19:15.648Z,1024.49
2022-10-11T07:20:15.811Z,1024.49
2022-10-11T07:21:16.020Z,1024.51
2022-10-11T07:22:16.165Z,1024.52
2022-10-11T07:23:16.350Z,1024.53
2022-10-11T07:24:16.526Z,1024.53
2022-10-11T07:25:16.681Z,1024.54
2022-10-11T07:26:16.872Z,1024.49
2022-10-11T07:27:17.045Z,1024.58
2022-10-11T07:28:17.313Z,1024.55
2022-10-11T07:29:17.390Z,1024.62
2022-10-11T07:30:17.568Z,1024.58
2022-10-11T07:31:17.759Z,1024.61
2022-10-11T07:32:17.927Z,1024.59
2022-10-11T07:33:18.122Z,1024.65
2022-10-11T07:34:18.294Z,1024.67
2022-10-11T07:35:18.475Z,1024.71
2022-10-11T07:36:18.654Z,1024.70
2022-10-11T07:37:18.860Z,1024.70
2022-10-11T07:38:19.133Z,1024.74
2022-10-11T07:39:19.293Z,1024.72
2022-10-11T07:40:19.475Z,1024.70
2022-10-11T07:41:19.656Z,1024.71
2022-10-11T07:42:19.815Z,1024.71
2022-10-11T07:43:20.016Z,1024.72
2022-10-11T07:44:20.203Z,1024.71
2022-10-11T07:45:20.365Z,1024.71
2022-10-11T07:46:20.547Z,1024.74
2022-10-11T07:47:20.714Z,1024.74
2022-10-11T07:48:20.880Z,1024.70
2022-10-11T07:49:21.058Z,1024.73
2022-10-11T07:50:21.229Z,1024.71
2022-10-11T07:51:21.413Z,1024.73
2022-10-11T07:52:21.618Z,1024.71
2022-10-11T07:53:21.816Z,1024.73
2022-10-11T07:54:21.959Z,1024.77
2022-10-11T07:55:22.136Z,1024.73
2022-10-11T07:56:22.313Z,1024.73
2022-10-11T07:57:22.550Z,1024.77
2022-10-11T07:58:22.668Z,1024.79
2022-10-11T07:59:22.843Z,1024.81
2022-10-11T08:00:23.062Z,1024.83
2022-10-11T08:01:23.266Z,1024.84
2022-10-11T08:02:23.346Z,1024.86
2022-10-11T08:03:23.530Z,1024.86
2022-10-11T08:04:23.729Z,1024.85
2022-10-11T08:05:23.914Z,1024.83
2022-10-11T08:06:24.122Z,1024.85
2022-10-11T08:07:24.329Z,1024.86
2022-10-11T08:08:24.483Z,1024.81
2022-10-11T08:09:24.742Z,1024.79
2022-10-11T08:10:24.883Z,1024.81
2022-10-11T08:11:25.136Z,1024.83
2022-10-11T08:12:25.257Z,1024.88
2022-10-11T08:13:25.449Z,1024.89
2022-10-11T08:14:25.632Z,1024.85
2022-10-11T08:15:25.810Z,1024.85
2022-10-11T08:16:26.040Z,1024.85
2022-10-11T08:17:26.198Z,1024.91
2022-10-11T08:18:26.379Z,1024.82
2022-10-11T08:19:26.559Z,1024.87
2022-10-11T08:20:26.768Z,1024.93
2022-10-11T08:21:27.049Z,1024.92
2022-10-11T08:22:27.124Z,1024.89
2022-10-11T08:23:27.319Z,1024.90
2022-10-11T08:24:27.520Z,1024.93
2022-10-11T08:25:27.727Z,1024.95
2022-10-11T08:26:27.930Z,1024.93
2022-10-11T08:27:28.087Z,1024.93
2022-10-11T08:28:28.349Z,1024.93
2022-10-11T08:29:28.482Z,1024.97
2022-10-11T08:30:28.696Z,1024.95
2022-10-11T08:31:28.905Z,1024.95
2022-10-11T08:32:29.064Z,1024.89
2022-10-11T08:33:29.249Z,1024.93
2022-10-11T08:34:29.433Z,1024.93
2022-10-11T08:35:29.626Z,1024.96
2022-10-11T08:36:29.824Z,1024.89
2022-10-11T08:37:29.988Z,1025.00
2022-10-11T08:38:30.183Z,1024.97
2022-10-11T08:39:30.393Z,1024.95
2022-10-11T08:40:35.162Z,1024.97
2022-10-11T08:41:30.817Z,1024.97
2022-10-11T08:42:30.960Z,1024.98
2022-10-11T08:43:31.149Z,1025.04
2022-10-11T08:44:46.110Z,1025.09
2022-10-11T08:45:31.488Z,1025.04
2022-10-11T08:46:31.693Z,1025.03
2022-10-11T08:47:31.884Z,1025.06
2022-10-11T08:48:32.072Z,1025.12
2022-10-11T08:49:32.270Z,1025.10
2022-10-11T08:50:32.461Z,1025.08
2022-10-11T08:51:32.674Z,1025.06
2022-10-11T08:52:32.820Z,1025.10
2022-10-11T08:53:33.032Z,1025.06
2022-10-11T08:54:33.182Z,1025.04
2022-10-11T08:55:33.386Z,1025.07
2022-10-11T08:56:33.558Z,1025.03
2022-10-11T08:57:33.718Z,1025.05
2022-10-11T08:58:33.896Z,1025.14
2022-10-11T08:59:34.092Z,1025.14
2022-10-11T09:00:34.298Z,1025.11
2022-10-11T09:01:34.567Z,1025.10
2022-10-11T09:02:55.610Z,1025.08
2022-10-11T09:03:34.872Z,1025.11
2022-10-11T09:04:35.019Z,1025.08
2022-10-11T09:05:35.210Z,1025.05
2022-10-11T09:06:35.420Z,1025.08
2022-10-11T09:07:35.575Z,1025.12
2022-10-11T09:08:35.766Z,1025.11
2022-10-11T09:09:35.968Z,1025.15
2022-10-11T09:10:36.169Z,1025.13
2022-10-11T09:11:36.407Z,1025.18
2022-10-11T09:12:40.686Z,1025.13
2022-10-11T09:13:36.713Z,1025.22
2022-10-11T09:14:36.928Z,1025.20
2022-10-11T09:15:37.084Z,1025.21
2022-10-11T09:16:37.303Z,1025.20
2022-10-11T09:17:37.476Z,1025.21
2022-10-11T09:18:37.679Z,1025.25
2022-10-11T09:19:37.839Z,1025.19
2022-10-11T09:20:38.027Z,1025.20
2022-10-11T09:21:38.248Z,1025.22
2022-10-11T09:22:38.405Z,1025.20
2022-10-11T09:23:38.595Z,1025.26
2022-10-11T09:24:38.803Z,1025.25
2022-10-11T09:25:38.986Z,1025.26
2022-10-11T09:26:39.216Z,1025.26
2022-10-11T09:28:01.180Z,1025.28
2022-10-11T09:28:39.681Z,1025.27
2022-10-11T09:29:39.778Z,1025.26
2022-10-11T09:30:39.954Z,1025.27
2022-10-11T09:31:40.169Z,1025.25
2022-10-11T09:32:40.330Z,1025.30
2022-10-11T09:33:40.521Z,1025.27
2022-10-11T09:34:40.738Z,1025.29
2022-10-11T09:35:40.931Z,1025.26
2022-10-11T09:36:41.110Z,1025.28
2022-10-11T09:37:41.256Z,1025.30
2022-10-11T09:38:41.460Z,1025.26
2022-10-11T09:39:41.671Z,1025.25
2022-10-11T09:40:41.826Z,1025.25
2022-10-11T09:41:42.025Z,1025.29
2022-10-11T09:42:42.230Z,1025.20
2022-10-11T09:43:42.418Z,1025.29
2022-10-11T09:44:42.595Z,1025.21
2022-10-11T09:45:48.281Z,1025.23
2022-10-11T09:46:43.012Z,1025.26
2022-10-11T09:47:43.202Z,1025.25
2022-10-11T09:48:43.350Z,1025.26
2022-10-11T09:49:43.554Z,1025.28
2022-10-11T09:50:43.748Z,1025.26
2022-10-11T09:51:43.953Z,1025.22
2022-10-11T09:52:44.148Z,1025.29
2022-10-11T09:53:44.343Z,1025.33
2022-10-11T09:54:44.540Z,1025.35
2022-10-11T09:55:44.731Z,1025.34
2022-10-11T09:56:44.948Z,1025.39
2022-10-11T09:57:45.112Z,1025.37
2022-10-11T09:58:45.312Z,1025.39
2022-10-11T09:59:45.525Z,1025.36
2022-10-11T10:00:45.709Z,1025.29
2022-10-11T10:01:45.983Z,1025.31
2022-10-11T10:02:46.095Z,1025.27
2022-10-11T10:03:46.250Z,1025.28
2022-10-11T10:04:46.450Z,1025.25
2022-10-11T10:05:46.645Z,1025.24
2022-10-11T10:06:46.904Z,1025.23
2022-10-11T10:07:47.011Z,1025.25
2022-10-11T10:08:47.210Z,1025.28
2022-10-11T10:09:47.410Z,1025.35
2022-10-11T10:10:47.608Z,1025.39
2022-10-11T10:11:47.865Z,1025.33
2022-10-11T10:12:48.019Z,1025.32
2022-10-11T10:13:48.211Z,1025.38
2022-10-11T10:14:48.418Z,1025.33
2022-10-11T10:15:48.602Z,1025.27
2022-10-11T10:16:48.838Z,1025.25
2022-10-11T10:17:49.033Z,1025.34
2022-10-11T10:18:49.226Z,1025.36
2022-10-11T10:19:49.418Z,1025.32
2022-10-11T10:20:49.616Z,1025.28
2022-10-11T10:21:49.835Z,1025.26
2022-10-11T10:22:50.039Z,1025.27
2022-10-11T10:23:50.230Z,1025.22
2022-10-11T10:24:50.445Z,1025.27
2022-10-11T10:25:50.631Z,1025.28
2022-10-11T10:26:50.850Z,1025.28
2022-10-11T10:27:51.008Z,1025.30
2022-10-11T10:28:51.247Z,1025.29
2022-10-11T10:29:51.411Z,1025.24
2022-10-11T10:30:51.640Z,1025.23
2022-10-11T10:32:52.015Z,1025.23
2022-10-11T10:33:52.215Z,1025.28
2022-10-11T10:34:52.387Z,1025.30
2022-10-11T10:35:52.576Z,1025.33
2022-10-11T10:36:52.782Z,1025.31
2022-10-11T10:37:52.959Z,1025.30
2022-10-11T10:38:53.152Z,1025.27
2022-10-11T10:39:53.347Z,1025.26
2022-10-11T10:40:53.561Z,1025.30
2022-10-11T10:41:53.770Z,1025.32
2022-10-11T10:42:53.989Z,1025.36
2022-10-11T10:43:54.158Z,1025.31
2022-10-11T10:44:54.375Z,1025.39
2022-10-11T10:45:54.593Z,1025.35
2022-10-11T10:46:54.799Z,1025.33
2022-10-11T10:47:55.000Z,1025.33
2022-10-11T10:49:28.706Z,1025.31
2022-10-11T10:49:55.550Z,1025.32
2022-10-11T10:50:55.605Z,1025.31
2022-10-11T10:51:55.820Z,1025.38
2022-10-11T10:52:56.001Z,1025.33
2022-10-11T10:53:56.192Z,1025.33
2022-10-11T10:54:56.373Z,1025.30
2022-10-11T10:55:56.558Z,1025.27
2022-10-11T10:56:56.811Z,1025.34
2022-10-11T10:57:56.938Z,1025.34
2022-10-11T10:58:57.139Z,1025.36
2022-10-11T10:59:57.351Z,1025.38
2022-10-11T11:00:57.541Z,1025.38
2022-10-11T11:02:06.721Z,1025.36
2022-10-11T11:02:58.047Z,1025.38
2022-10-11T11:03:58.117Z,1025.31
2022-10-11T11:05:58.525Z,1025.34
2022-10-11T11:06:58.796Z,1025.27
2022-10-11T11:07:58.971Z,1025.32
2022-10-11T11:08:59.130Z,1025.30
2022-10-11T11:09:59.330Z,1025.29
2022-10-11T11:10:59.508Z,1025.28
2022-10-11T11:11:59.745Z,1025.26
2022-10-11T11:12:59.919Z,1025.29
2022-10-11T11:14:00.097Z,1025.27
2022-10-11T11:15:00.291Z,1025.32
2022-10-11T11:16:00.458Z,1025.26
2022-10-11T11:17:00.666Z,1025.36
2022-10-11T11:18:00.881Z,1025.24
2022-10-11T11:19:01.084Z,1025.28
2022-10-11T11:20:01.248Z,1025.24
2022-10-11T11:21:01.474Z,1025.27
2022-10-11T11:22:01.688Z,1025.34
2022-10-11T11:23:01.882Z,1025.27
2022-10-11T11:24:02.090Z,1025.21
2022-10-11T11:25:02.270Z,1025.23
2022-10-11T11:26:02.856Z,1025.27
2022-10-11T11:27:02.693Z,1025.28
2022-10-11T11:28:02.864Z,1025.20
2022-10-11T11:29:03.078Z,1025.30
2022-10-11T11:30:03.288Z,1025.23
2022-10-11T11:31:03.896Z,1025.29
2022-10-11T11:32:03.713Z,1025.29
2022-10-11T11:33:03.923Z,1025.30
2022-10-11T11:34:04.124Z,1025.22
2022-10-11T11:35:04.333Z,1025.29
2022-10-11T11:36:04.798Z,1025.22
2022-10-11T11:37:04.735Z,1025.27
2022-10-11T11:38:06.479Z,1025.28
2022-10-11T11:39:05.077Z,1025.27
2022-10-11T11:40:05.241Z,1025.26
2022-10-11T11:41:05.764Z,1025.30
2022-10-11T11:42:05.643Z,1025.29
2022-10-11T11:43:05.813Z,1025.31
2022-10-11T11:44:06.035Z,1025.28
2022-10-11T11:45:06.202Z,1025.35
2022-10-11T11:46:06.437Z,1025.34
2022-10-11T11:47:06.682Z,1025.31
2022-10-11T11:48:06.757Z,1025.30
2022-10-11T11:49:12.102Z,1025.29
2022-10-11T11:50:07.163Z,1025.28
2022-10-11T11:51:07.918Z,1025.39
2022-10-11T11:52:07.576Z,1025.32
2022-10-11T11:53:07.732Z,1025.40
2022-10-11T11:54:07.932Z,1025.43
2022-10-11T11:55:08.126Z,1025.35
2022-10-11T11:56:08.355Z,1025.32
2022-10-11T11:57:08.557Z,1025.43
2022-10-11T11:58:08.709Z,1025.35
2022-10-11T11:59:08.903Z,1025.33
2022-10-11T12:00:09.112Z,1025.31
2022-10-11T12:01:09.570Z,1025.33
2022-10-11T12:02:09.544Z,1025.34
2022-10-11T12:03:09.689Z,1025.37
2022-10-11T12:04:09.881Z,1025.38
2022-10-11T12:05:10.076Z,1025.38
2022-10-11T12:06:10.272Z,1025.38
2022-10-11T12:07:16.433Z,1025.41
2022-10-11T12:08:10.630Z,1025.42
2022-10-11T12:09:10.835Z,1025.45
2022-10-11T12:10:11.107Z,1025.41